x

Boston 16 Nm East Of Boston, Ma (44013) Wave Buoy

4:50 - Thu 23rd Feb 2017 All times are EST. -5 hours from GMT.

  • Sig Wave height 3.3ft
  • Swell Direction
  • Peak Period 9s
  • Average Period 5s
  • Wind
    16mph, 18mph gusts
  • Sea Temp 43°f
  • Aire Temp 52°f
  • Sea Pressure 1006.1mb
  • Boston 16 Nm East Of Boston, Ma
  • Boston 16 Nm East Of Boston, Ma

More Historic Weather Station data

Upgrade to MSW Pro to gain access to the past 30 days of data for over 8000 Wavebouys and Weather Stations around the globe.

Join Pro

Comparision Forecast

View Surf forecast
   
jue 02/23 4:50 3.5ft 9s 5s 16 18 mph 1006.1mb 43f 52f
3:50 3.5ft 9s 6s 16 18 mph 1006.5mb 43f 54f
2:50 3.5ft 10s 7s 11 13 mph 1006.8mb 43f 52f
1:50 3.5ft 10s 6s 16
mph
1007.1mb 43f 54f
12:50 3ft 10s 7s 11 13 mph 1007.8mb 43f 51f
11:50 3.5ft 10s 7s 11 13 mph 1008.8mb 42f 45f
10:50 3ft 10s 8s 11 13 mph 1009.8mb 42f 44f
9:50 3.5ft 10s 8s 9 11 mph 1010.6mb 42f 42f
8:50 3ft 10s 8s 9 11 mph 1011.1mb 42f 42f
7:50 3ft 10s 8s 9 11 mph 1010.9mb 42f 42f
6:50 3ft 8s 8s 7 9 mph 1010.6mb 42f 41f
5:50 2.5ft 10s 7s 9 11 mph 1010.7mb 42f 41f
mié 02/22 5:50 2ft 11s 7s 9
mph
1011.7mb 43f 43f
4:50 2ft 8s 7s 9 11 mph 1011.7mb 43f 44f
3:50 1.6ft 8s 7s 7 9 mph 1011.3mb 44f 44f
2:50 1.6ft 8s 7s 9
mph
1011.5mb 44f 44f
1:50 1.6ft 8s 7s 4 7 mph 1012.1mb 44f 46f
12:50 1.6ft 8s 6s 2
mph
1012.6mb 43f 46f
11:50 1.6ft 9s 6s 4
mph
1013.6mb 42f 43f
10:50 1.6ft 9s 5s 7 9 mph 1014.4mb 42f 42f
9:50 2ft 9s 5s 11
mph
1015.2mb 42f 41f
8:50 2ft 7s 5s 9 11 mph 1016mb 42f 41f
7:50 2ft 8s 5s 9 11 mph 1015.9mb 42f 41f
5:50 2.5ft 7s 4s 13 16 mph 1015.9mb 42f 41f
4:50 2.5ft 8s 4s 13 16 mph 1016.3mb 42f 40f
3:50 2.5ft 8s 4s 13 18 mph 1017.1mb 42f 39f
2:50 2.5ft 8s 4s 16
mph
1017mb 42f 39f
1:50 2.5ft 7s 4s 16 18 mph 1017.8mb 42f 39f
12:50 2.5ft 7s 5s 16 18 mph 1018.7mb 42f 38f
mar 02/21 11:50 2.5ft 8s 4s 13 16 mph 1019.6mb 42f 38f
10:50 2.5ft 8s 4s 16 20 mph 1019.9mb 42f 38f
9:50 2.5ft 6s 4s 16 18 mph 1020.6mb 42f 39f
8:50 3ft 3s 4s 18 20 mph 1021.5mb 42f 39f
7:50 3ft 6s 4s 20 22 mph 1021.2mb 42f 39f
6:50 3ft 7s 4s 18 22 mph 1022.1mb 42f 40f
5:50 3ft 6s 5s 16 20 mph 1022.2mb 42f 38f
4:50 3ft 6s 5s 13 16 mph 1022.7mb 42f 38f
3:50 3ft 6s 5s 11 13 mph 1023.4mb 42f 38f
2:50 2.5ft 6s 5s 9 13 mph 1024mb 42f 38f
1:50 3ft 6s 5s 7
mph
1024.9mb 42f 38f
12:50 2.5ft 7s 5s 2 4 mph 1026mb 42f 38f
11:50 2.5ft 6s 5s 4 9 mph 1026.7mb 42f 37f
10:50 3ft 6s 5s 7 9 mph 1027.5mb 42f 37f
9:50 3ft 6s 5s 9 11 mph 1028.1mb 42f 38f
8:50 3ft 6s 5s 7 9 mph 1028.2mb 42f 37f
7:50 3ft 6s 4s 11 13 mph 1028.4mb 42f 36f
6:50 3ft 6s 4s 11
mph
1028mb 42f 36f
5:50 3.5ft 6s 5s 9 11 mph 1027.4mb 42f 37f
4:50 3.5ft 6s 5s 11 13 mph 1027.4mb 42f 38f
3:50 3.5ft 6s 5s 11 16 mph 1027.5mb 42f 38f
2:50 3.5ft 6s 4s 13
mph
1027.3mb 42f 37f
1:50 3.5ft 6s 5s 16 18 mph 1027.4mb 42f 36f
12:50 3.5ft 6s 4s 16 18 mph 1027.5mb 42f 37f
lun 02/20 11:50 3.5ft 5s 4s 16 18 mph 1027.3mb 42f 37f
10:50 3.5ft 6s 4s 16 20 mph 1026.7mb 42f 38f
9:50 3.5ft 6s 5s 16 18 mph 1026.1mb 42f 40f
8:50 3.5ft 6s 5s 13 16 mph 1025.5mb 42f 40f
7:50 3ft 6s 5s 13 16 mph 1025.2mb 42f 41f
6:50 2.5ft 5s 4s 7 11 mph 1024.7mb 42f 40f
5:50 2.5ft 6s 4s 9 11 mph 1023.6mb 42f 40f
4:50 3ft 6s 4s 13 16 mph 1022mb 42f 40f
3:50 3ft 5s 4s 13 16 mph 1021.2mb 42f 39f
2:50 3.5ft 6s 4s 13 16 mph 1021mb 42f 38f
1:50 3.5ft 6s 5s 13 18 mph 1020.1mb 42f 38f
12:50 4ft 6s 5s 16 18 mph 1020.5mb 42f 38f
11:50 4ft 6s 4s 16 20 mph 1020.3mb 42f 38f
10:50 3.5ft 6s 4s 16 20 mph 1020.2mb 42f 38f
9:50 3ft 5s 4s 16 18 mph 1020mb 42f 39f
8:50 2ft 3s 3s 18 20 mph 1019.4mb 42f 39f
7:50 1.6ft 3s 3s 18 20 mph 1018.6mb 42f 40f
6:50 2ft 3s 3s 16 18 mph 1016.9mb 42f 41f
5:50 2ft 3s 3s 16 18 mph 1015.5mb 42f 42f
4:50 2ft 3s 3s 18 22 mph 1014.3mb 42f 43f
3:50 2ft 3s 3s 13 18 mph 1013.4mb 42f 43f
2:50 1.6ft 3s 3s 20 22 mph 1012.5mb 42f 45f
1:50 1.3ft 10s 3s 16 20 mph 1012.1mb 42f 46f
12:50 1ft 9s 5s 13 16 mph 1011.6mb 42f 46f
dom 02/19 11:50 1ft 9s 6s 11
mph
1011.4mb 42f 46f